Hovedside
METAR-TAF:

METAR-TAF

Lufthavner :

Ronneby, Sverige

Ronneby lufthavn

breddegrad: 56-16N, lengdegrad: 015-17E, høyde over havet: 58 m

Gjeldene værobservasjon

Denne rapporten ble laget for 20 minutter siden, klokken 14:20 UTC
Vind 7 kt fra Sørøst, skiftende mellom Øst og Sør-sørøst
Temperatur 5°C
Luftfuktighet 100%
Trykk 1002 hPa
Sikt: 2000 m
Brutte skyer i en høyde av 300 ft
lett duskregn, dis

METAR: ESDF 221420Z 13007KT 100V160 2000 -DZ BR BKN003 05/05 Q1002

Tid: 15:40 (14:40 UTC)

Varsel

Denne rapporten ble laget for 15 minutter siden, klokken 14:25 UTC
Varsel gyldig fra 22. klokken 15 UTC til 22. klokken 23 UTC
Vind 12 kt fra Sørøst
Sikt: 4000 m
Brutte skyer i en høyde av 400 ft
regn, duskregn
Sannsynlighet 30%
fra 22. klokken 15 UTC til 22. klokken 23 UTC
Sikt: 0600 m
i en høyde av 100 ft
tåke

TAF: ESDF 221425Z 2215/2223 14012KT 4000 RADZ BKN004 PROB30 2215/2223 0600 FG VV001

Værobservasjoner og værvarsel for over 4000 flyplasser (METAR- og TAF-rapporter).

Tilgjengelige stasjoner er representert av de røde og gule prikkene på kartet.

Hold musepekeren over prikken for å se navnet på stasjonen.

Klikk så for å se værobservasjoner og -varsler.

For å forandre kartet kan du klikke på den grønne knappen med svart kryss for å zoome inn, på den grønne knappen med strek for å zoome ut, eller på de grønne pilene for å se tilstøtende kart.


METAR-TAF: